METAR AND TAF INFORMATION
METAR FOR LTCV
ADDS - METARS form results

(1020 UTC 21 January 2019)
Data provider http://aviationweather.gov/metar/data/
 
METAR text: LTCV 210950Z 30004KT 220V360 CAVOK 07/M01 Q1023
Conditions at: LTCV (SIRNAK , TR) observed 0950 UTC 21 January 2019
Temperature: 7.0°C (45°F)
Dewpoint: -1.0°C (30°F) [RH = 57%]
Pressure (altimeter): 30.21 inches Hg (1023.0 mb)
Winds: from the WNW (300 degrees) at 5 MPH (4 knots; 2.1 m/s)
Visibility: 6 or more miles (10+ km)
Ceiling: ceiling and visibility are OK
Clouds: unknown
Weather: no significant weather observed at this time

Forecast for: LTCV (SIRNAK , TR)
Text: TAF LTCV 210740Z 2109/2118 27007KT CAVOK
Forecast period: 0900 to 1800 UTC 21 January 2019
Forecast type: FROM: standard forecast or significant change
Winds: from the W (270 degrees) at 8 MPH (7 knots; 3.6 m/s)
Visibility: 6 or more miles 10+ km)
Ceiling: unknown
Clouds: missing
Weather: NSW  (no significant weather)

 AIRPORT MAP

 RUNWAY INFORMATION

 AIRPORT FREQUENCIES

 AIRPORT NEAR NAVIGATION AIDS



Copyright © 2007-2018 Istanbul Virtual Airlines.All rights reserved.Developed by Arca Erdik and Aykut Alp Kurt.